Avon, MN (56310)

7:23 PM CDT on September 01, 2015 (GMT -0500)
Saint Johns University Campus | | Change Station
CLOSE
Current Station
Personal Weather Station
Location: Collegeville, MN
Elevation: 1200 ft
Nearby Weather Stations

Elev 1200 ft 45.58 °N, 94.39 °W | Updated 38 seconds ago

Partly Cloudy
Partly Cloudy
79.4 °F
Feels Like 83 °F
N
4.5
Wind Variable Wind from SSE
Gusts 6.0 mph

Today
High -- | Low -- °F
--% Chance of Precip.
Yesterday
High -- | Low -- °F
Precip. -- in
6:38 AM 7:56 PM
Waning Gibbous, 85% visible
Pressure 29.92 in
Visibility 8.0 miles
Clouds Mostly Cloudy 8000 ft
Heat Index 83 °F
Dew Point 74 °F
Humidity 84%
Rainfall 0.00 in
Snow Depth Not available.
UV 0.0 out of 12
Pollen 9.80 out of 12
Air Quality Not available.
Flu Activity Not available.
METAR KSTC 012353Z 21005KT 8SM BKN080 26/23 A2991 RMK AO2 LTG DSNT SW SLP130 T02610228 10294 20261 53006
Pressure 29.92 in
Visibility 8.0 miles
Clouds Mostly Cloudy 8000 ft
Heat Index 83 °F
Dew Point 74 °F
Humidity 84%
Rainfall 0.00 in
Snow Depth Not available.
UV 0.0 out of 12
Pollen 9.80 out of 12
Air Quality Not available.
Flu Activity Not available.
METAR KSTC 012353Z 21005KT 8SM BKN080 26/23 A2991 RMK AO2 LTG DSNT SW SLP130 T02610228 10294 20261 53006

10-Day Weather Forecast

×

Almanac

Astronomy

Sep. 01, 2015 Rise Set
Actual Time
Civil Twilight
Nautical Twilight
Astronomical Twilight
Moon
Length of Visible Light
Length of Day
Tomorrow will be .
, % of the Moon is Illuminated

Today's Extremes

State Highs State Lows

Community

WunderPhotos

Upload Photos

1,851,657 photos uploaded!

WunderBlogs® & News

Nearby

Air Quality

  Air Quality AQ Index Pollutant
Not available.

Snow Depth

Station Depth Elevation

Earthquake Activity

City Distance Mag. Time & Date
Minimum magnitude displayed is 2.5.

Coastal Water Temperatures

Place Temperature

Stations

Nearby Weather Stations

Station Location Temp. Windchill Dew Point Humidity Wind Precip. Elev Updated Type